sensor_id;sensor_type;location;lat;lon;timestamp;temperature;humidity
22852;DHT22;11592;45.460;9.240;2023-07-29T00:01:37;24.90;99.90
22852;DHT22;11592;45.460;9.240;2023-07-29T00:04:04;24.90;99.90
22852;DHT22;11592;45.460;9.240;2023-07-29T00:06:31;24.90;99.90
22852;DHT22;11592;45.460;9.240;2023-07-29T00:08:58;24.90;99.90
22852;DHT22;11592;45.460;9.240;2023-07-29T00:11:25;24.80;99.90
22852;DHT22;11592;45.460;9.240;2023-07-29T00:13:52;24.90;99.90
22852;DHT22;11592;45.460;9.240;2023-07-29T00:16:19;24.90;99.90
22852;DHT22;11592;45.460;9.240;2023-07-29T00:18:49;24.90;99.90
22852;DHT22;11592;45.460;9.240;2023-07-29T00:21:16;24.90;99.90
22852;DHT22;11592;45.460;9.240;2023-07-29T00:23:42;24.80;99.90
22852;DHT22;11592;45.460;9.240;2023-07-29T00:26:09;24.90;99.90
22852;DHT22;11592;45.460;9.240;2023-07-29T00:28:36;24.90;99.90
22852;DHT22;11592;45.460;9.240;2023-07-29T00:31:03;24.70;99.90
22852;DHT22;11592;45.460;9.240;2023-07-29T00:33:29;24.70;99.90
22852;DHT22;11592;45.460;9.240;2023-07-29T00:35:56;24.70;99.90
22852;DHT22;11592;45.460;9.240;2023-07-29T00:38:23;24.70;99.90
22852;DHT22;11592;45.460;9.240;2023-07-29T00:40:50;24.70;99.90
22852;DHT22;11592;45.460;9.240;2023-07-29T00:43:17;24.70;99.90
22852;DHT22;11592;45.460;9.240;2023-07-29T00:45:45;24.80;99.90
22852;DHT22;11592;45.460;9.240;2023-07-29T00:48:12;24.80;99.90
22852;DHT22;11592;45.460;9.240;2023-07-29T00:50:39;24.80;99.90
22852;DHT22;11592;45.460;9.240;2023-07-29T00:53:06;24.90;99.90
22852;DHT22;11592;45.460;9.240;2023-07-29T00:55:33;24.80;99.90
22852;DHT22;11592;45.460;9.240;2023-07-29T00:58:00;24.70;99.90
22852;DHT22;11592;45.460;9.240;2023-07-29T01:00:27;24.60;99.90
22852;DHT22;11592;45.460;9.240;2023-07-29T01:02:54;24.60;99.90
22852;DHT22;11592;45.460;9.240;2023-07-29T01:05:22;24.60;99.90
22852;DHT22;11592;45.460;9.240;2023-07-29T01:08:03;24.20;99.90
22852;DHT22;11592;45.460;9.240;2023-07-29T01:10:53;24.60;99.90
22852;DHT22;11592;45.460;9.240;2023-07-29T01:13:44;24.60;99.90
22852;DHT22;11592;45.460;9.240;2023-07-29T01:16:29;24.60;99.90
22852;DHT22;11592;45.460;9.240;2023-07-29T01:18:59;24.50;99.90
22852;DHT22;11592;45.460;9.240;2023-07-29T01:21:31;24.60;99.90
22852;DHT22;11592;45.460;9.240;2023-07-29T01:23:59;24.60;99.90
22852;DHT22;11592;45.460;9.240;2023-07-29T01:26:26;24.70;99.90
22852;DHT22;11592;45.460;9.240;2023-07-29T01:28:56;24.60;99.90
22852;DHT22;11592;45.460;9.240;2023-07-29T01:31:33;24.70;99.90
22852;DHT22;11592;45.460;9.240;2023-07-29T01:34:16;24.70;99.90
22852;DHT22;11592;45.460;9.240;2023-07-29T01:36:45;24.70;99.90
22852;DHT22;11592;45.460;9.240;2023-07-29T01:39:15;24.70;99.90
22852;DHT22;11592;45.460;9.240;2023-07-29T01:41:43;24.70;99.90
22852;DHT22;11592;45.460;9.240;2023-07-29T01:44:11;24.70;99.90
22852;DHT22;11592;45.460;9.240;2023-07-29T01:46:39;24.70;99.90
22852;DHT22;11592;45.460;9.240;2023-07-29T01:49:06;24.60;99.90
22852;DHT22;11592;45.460;9.240;2023-07-29T01:51:33;24.60;99.90
22852;DHT22;11592;45.460;9.240;2023-07-29T01:53:59;24.60;99.90
22852;DHT22;11592;45.460;9.240;2023-07-29T01:56:26;24.60;99.90
22852;DHT22;11592;45.460;9.240;2023-07-29T01:58:53;24.60;99.90
22852;DHT22;11592;45.460;9.240;2023-07-29T02:01:20;24.50;99.90
22852;DHT22;11592;45.460;9.240;2023-07-29T02:03:47;24.60;99.90
22852;DHT22;11592;45.460;9.240;2023-07-29T02:06:14;24.50;99.90
22852;DHT22;11592;45.460;9.240;2023-07-29T02:08:41;24.40;99.90
22852;DHT22;11592;45.460;9.240;2023-07-29T02:11:08;24.50;99.90
22852;DHT22;11592;45.460;9.240;2023-07-29T02:13:35;24.40;99.90
22852;DHT22;11592;45.460;9.240;2023-07-29T02:16:01;24.50;99.90
22852;DHT22;11592;45.460;9.240;2023-07-29T02:18:28;24.50;99.90
22852;DHT22;11592;45.460;9.240;2023-07-29T02:20:55;24.40;99.90
22852;DHT22;11592;45.460;9.240;2023-07-29T02:23:22;24.40;99.90
22852;DHT22;11592;45.460;9.240;2023-07-29T02:25:50;24.40;99.90
22852;DHT22;11592;45.460;9.240;2023-07-29T02:28:16;24.40;99.90
22852;DHT22;11592;45.460;9.240;2023-07-29T02:30:43;24.30;99.90
22852;DHT22;11592;45.460;9.240;2023-07-29T02:33:11;24.40;99.90
22852;DHT22;11592;45.460;9.240;2023-07-29T02:35:38;24.50;99.90
22852;DHT22;11592;45.460;9.240;2023-07-29T02:38:05;24.50;99.90
22852;DHT22;11592;45.460;9.240;2023-07-29T02:40:32;24.60;99.90
22852;DHT22;11592;45.460;9.240;2023-07-29T02:42:59;24.60;99.90
22852;DHT22;11592;45.460;9.240;2023-07-29T02:45:26;24.50;99.90
22852;DHT22;11592;45.460;9.240;2023-07-29T02:47:52;24.50;99.90
22852;DHT22;11592;45.460;9.240;2023-07-29T02:50:20;24.50;99.90
22852;DHT22;11592;45.460;9.240;2023-07-29T02:52:47;24.60;99.90
22852;DHT22;11592;45.460;9.240;2023-07-29T02:55:17;24.50;99.90
22852;DHT22;11592;45.460;9.240;2023-07-29T02:57:44;24.50;99.90
22852;DHT22;11592;45.460;9.240;2023-07-29T03:00:11;24.50;99.90
22852;DHT22;11592;45.460;9.240;2023-07-29T03:02:38;24.50;99.90
22852;DHT22;11592;45.460;9.240;2023-07-29T03:05:05;24.40;99.90
22852;DHT22;11592;45.460;9.240;2023-07-29T03:07:32;24.50;99.90
22852;DHT22;11592;45.460;9.240;2023-07-29T03:09:59;24.50;99.90
22852;DHT22;11592;45.460;9.240;2023-07-29T03:12:26;24.50;99.90
22852;DHT22;11592;45.460;9.240;2023-07-29T03:14:53;24.50;99.90
22852;DHT22;11592;45.460;9.240;2023-07-29T03:17:20;24.50;99.90
22852;DHT22;11592;45.460;9.240;2023-07-29T03:19:46;24.40;99.90
22852;DHT22;11592;45.460;9.240;2023-07-29T03:22:13;24.40;99.90
22852;DHT22;11592;45.460;9.240;2023-07-29T03:24:40;24.40;99.90
22852;DHT22;11592;45.460;9.240;2023-07-29T03:27:09;24.40;99.90
22852;DHT22;11592;45.460;9.240;2023-07-29T03:29:36;24.20;99.90
22852;DHT22;11592;45.460;9.240;2023-07-29T03:32:03;24.10;99.90
22852;DHT22;11592;45.460;9.240;2023-07-29T03:34:30;24.10;99.90
22852;DHT22;11592;45.460;9.240;2023-07-29T03:37:00;24.10;99.90
22852;DHT22;11592;45.460;9.240;2023-07-29T03:39:27;24.20;99.90
22852;DHT22;11592;45.460;9.240;2023-07-29T03:41:54;24.00;99.90
22852;DHT22;11592;45.460;9.240;2023-07-29T03:44:21;24.00;99.90
22852;DHT22;11592;45.460;9.240;2023-07-29T03:46:47;24.10;99.90
22852;DHT22;11592;45.460;9.240;2023-07-29T03:49:14;24.20;99.90
22852;DHT22;11592;45.460;9.240;2023-07-29T03:51:41;24.20;99.90
22852;DHT22;11592;45.460;9.240;2023-07-29T03:54:08;24.10;99.90
22852;DHT22;11592;45.460;9.240;2023-07-29T03:56:35;24.20;99.90
22852;DHT22;11592;45.460;9.240;2023-07-29T03:59:03;24.20;99.90
22852;DHT22;11592;45.460;9.240;2023-07-29T04:01:30;24.10;99.90
22852;DHT22;11592;45.460;9.240;2023-07-29T04:03:58;24.20;99.90
22852;DHT22;11592;45.460;9.240;2023-07-29T04:06:25;24.20;99.90
22852;DHT22;11592;45.460;9.240;2023-07-29T04:08:52;24.20;99.90
22852;DHT22;11592;45.460;9.240;2023-07-29T04:11:19;24.20;99.90
22852;DHT22;11592;45.460;9.240;2023-07-29T04:13:46;24.30;99.90
22852;DHT22;11592;45.460;9.240;2023-07-29T04:16:13;24.20;99.90
22852;DHT22;11592;45.460;9.240;2023-07-29T04:18:40;24.20;99.90
22852;DHT22;11592;45.460;9.240;2023-07-29T04:21:07;24.30;99.90
22852;DHT22;11592;45.460;9.240;2023-07-29T04:23:33;24.30;99.90
22852;DHT22;11592;45.460;9.240;2023-07-29T04:26:01;24.40;99.90
22852;DHT22;11592;45.460;9.240;2023-07-29T04:28:28;24.30;99.90
22852;DHT22;11592;45.460;9.240;2023-07-29T04:30:55;24.40;99.90
22852;DHT22;11592;45.460;9.240;2023-07-29T04:33:22;24.40;99.90
22852;DHT22;11592;45.460;9.240;2023-07-29T04:35:49;24.30;99.90
22852;DHT22;11592;45.460;9.240;2023-07-29T04:38:16;24.40;99.90
22852;DHT22;11592;45.460;9.240;2023-07-29T04:40:42;24.50;99.90
22852;DHT22;11592;45.460;9.240;2023-07-29T04:43:09;24.40;99.90
22852;DHT22;11592;45.460;9.240;2023-07-29T04:45:36;24.30;99.90
22852;DHT22;11592;45.460;9.240;2023-07-29T04:48:08;24.40;99.90
22852;DHT22;11592;45.460;9.240;2023-07-29T04:50:35;24.40;99.90
22852;DHT22;11592;45.460;9.240;2023-07-29T04:53:02;24.50;99.90
22852;DHT22;11592;45.460;9.240;2023-07-29T04:55:29;24.60;99.90
22852;DHT22;11592;45.460;9.240;2023-07-29T04:57:55;24.70;99.90
22852;DHT22;11592;45.460;9.240;2023-07-29T05:00:22;24.70;99.90
22852;DHT22;11592;45.460;9.240;2023-07-29T05:02:49;24.60;99.90
22852;DHT22;11592;45.460;9.240;2023-07-29T05:05:16;24.70;99.90
22852;DHT22;11592;45.460;9.240;2023-07-29T05:07:43;24.80;99.90
22852;DHT22;11592;45.460;9.240;2023-07-29T05:10:09;24.80;99.90
22852;DHT22;11592;45.460;9.240;2023-07-29T05:12:36;24.70;99.90
22852;DHT22;11592;45.460;9.240;2023-07-29T05:15:03;24.90;99.90
22852;DHT22;11592;45.460;9.240;2023-07-29T05:17:31;24.90;99.90
22852;DHT22;11592;45.460;9.240;2023-07-29T05:19:58;24.90;99.90
22852;DHT22;11592;45.460;9.240;2023-07-29T05:22:25;24.70;99.90
22852;DHT22;11592;45.460;9.240;2023-07-29T05:24:51;24.60;99.90
22852;DHT22;11592;45.460;9.240;2023-07-29T05:27:18;24.70;99.90
22852;DHT22;11592;45.460;9.240;2023-07-29T05:29:45;24.70;99.90
22852;DHT22;11592;45.460;9.240;2023-07-29T05:32:12;24.60;99.90
22852;DHT22;11592;45.460;9.240;2023-07-29T05:34:38;24.70;99.90
22852;DHT22;11592;45.460;9.240;2023-07-29T05:37:05;24.90;99.90
22852;DHT22;11592;45.460;9.240;2023-07-29T05:39:32;24.80;99.90
22852;DHT22;11592;45.460;9.240;2023-07-29T05:42:00;24.80;99.90
22852;DHT22;11592;45.460;9.240;2023-07-29T05:44:29;24.70;99.90
22852;DHT22;11592;45.460;9.240;2023-07-29T05:46:57;24.70;99.90
22852;DHT22;11592;45.460;9.240;2023-07-29T05:49:24;24.80;99.90
22852;DHT22;11592;45.460;9.240;2023-07-29T05:51:51;24.80;99.90
22852;DHT22;11592;45.460;9.240;2023-07-29T05:54:19;24.80;99.90
22852;DHT22;11592;45.460;9.240;2023-07-29T05:56:46;25.00;99.90
22852;DHT22;11592;45.460;9.240;2023-07-29T05:59:13;25.20;99.90
22852;DHT22;11592;45.460;9.240;2023-07-29T06:01:40;25.30;99.90
22852;DHT22;11592;45.460;9.240;2023-07-29T06:04:07;25.30;99.90
22852;DHT22;11592;45.460;9.240;2023-07-29T06:06:34;25.40;99.90
22852;DHT22;11592;45.460;9.240;2023-07-29T06:09:01;25.30;99.90
22852;DHT22;11592;45.460;9.240;2023-07-29T06:11:28;25.20;99.90
22852;DHT22;11592;45.460;9.240;2023-07-29T06:13:54;25.00;99.90
22852;DHT22;11592;45.460;9.240;2023-07-29T06:16:21;25.00;99.90
22852;DHT22;11592;45.460;9.240;2023-07-29T06:18:48;24.90;99.90
22852;DHT22;11592;45.460;9.240;2023-07-29T06:21:15;25.00;99.90
22852;DHT22;11592;45.460;9.240;2023-07-29T06:23:44;25.00;99.90
22852;DHT22;11592;45.460;9.240;2023-07-29T06:26:10;25.20;99.90
22852;DHT22;11592;45.460;9.240;2023-07-29T06:28:37;25.20;99.90
22852;DHT22;11592;45.460;9.240;2023-07-29T06:31:04;25.00;99.90
22852;DHT22;11592;45.460;9.240;2023-07-29T06:33:31;25.20;99.90
22852;DHT22;11592;45.460;9.240;2023-07-29T06:35:58;25.20;99.90
22852;DHT22;11592;45.460;9.240;2023-07-29T06:38:25;25.20;99.90
22852;DHT22;11592;45.460;9.240;2023-07-29T06:40:52;25.20;99.90
22852;DHT22;11592;45.460;9.240;2023-07-29T06:43:19;25.30;99.90
22852;DHT22;11592;45.460;9.240;2023-07-29T06:45:45;25.40;99.90
22852;DHT22;11592;45.460;9.240;2023-07-29T06:48:12;25.20;99.90
22852;DHT22;11592;45.460;9.240;2023-07-29T06:50:39;25.10;99.90
22852;DHT22;11592;45.460;9.240;2023-07-29T06:53:06;25.10;99.90
22852;DHT22;11592;45.460;9.240;2023-07-29T06:55:33;25.00;99.90
22852;DHT22;11592;45.460;9.240;2023-07-29T06:58:00;25.20;99.90
22852;DHT22;11592;45.460;9.240;2023-07-29T07:00:27;25.30;99.90
22852;DHT22;11592;45.460;9.240;2023-07-29T07:02:54;25.40;99.90
22852;DHT22;11592;45.460;9.240;2023-07-29T07:05:21;25.50;99.90
22852;DHT22;11592;45.460;9.240;2023-07-29T07:07:47;25.40;99.90
22852;DHT22;11592;45.460;9.240;2023-07-29T07:10:15;25.10;99.90
22852;DHT22;11592;45.460;9.240;2023-07-29T07:12:41;25.40;99.90
22852;DHT22;11592;45.460;9.240;2023-07-29T07:15:08;25.30;99.90
22852;DHT22;11592;45.460;9.240;2023-07-29T07:17:35;25.20;99.90
22852;DHT22;11592;45.460;9.240;2023-07-29T07:20:04;25.30;99.90
22852;DHT22;11592;45.460;9.240;2023-07-29T07:22:31;25.40;99.90
22852;DHT22;11592;45.460;9.240;2023-07-29T07:24:58;25.50;99.90
22852;DHT22;11592;45.460;9.240;2023-07-29T07:27:25;25.60;99.90
22852;DHT22;11592;45.460;9.240;2023-07-29T07:29:52;25.70;99.90
22852;DHT22;11592;45.460;9.240;2023-07-29T07:32:19;25.60;99.90
22852;DHT22;11592;45.460;9.240;2023-07-29T07:34:45;25.60;99.90
22852;DHT22;11592;45.460;9.240;2023-07-29T07:37:12;25.80;99.90
22852;DHT22;11592;45.460;9.240;2023-07-29T07:39:39;25.80;99.90
22852;DHT22;11592;45.460;9.240;2023-07-29T07:42:06;25.80;99.90
22852;DHT22;11592;45.460;9.240;2023-07-29T07:44:33;25.70;99.90
22852;DHT22;11592;45.460;9.240;2023-07-29T07:46:59;25.70;99.90
22852;DHT22;11592;45.460;9.240;2023-07-29T07:49:30;25.80;99.90
22852;DHT22;11592;45.460;9.240;2023-07-29T07:51:57;25.90;99.90
22852;DHT22;11592;45.460;9.240;2023-07-29T07:54:24;25.80;99.90
22852;DHT22;11592;45.460;9.240;2023-07-29T07:56:51;25.80;99.90
22852;DHT22;11592;45.460;9.240;2023-07-29T07:59:17;25.80;99.90
22852;DHT22;11592;45.460;9.240;2023-07-29T08:01:44;25.90;99.90
22852;DHT22;11592;45.460;9.240;2023-07-29T08:04:11;25.80;99.90
22852;DHT22;11592;45.460;9.240;2023-07-29T08:06:38;25.80;99.90
22852;DHT22;11592;45.460;9.240;2023-07-29T08:09:05;25.80;99.90
22852;DHT22;11592;45.460;9.240;2023-07-29T08:11:32;25.90;99.90
22852;DHT22;11592;45.460;9.240;2023-07-29T08:13:59;25.90;99.90
22852;DHT22;11592;45.460;9.240;2023-07-29T08:16:26;26.00;99.90
22852;DHT22;11592;45.460;9.240;2023-07-29T08:18:53;26.00;99.90
22852;DHT22;11592;45.460;9.240;2023-07-29T08:21:20;26.10;99.90
22852;DHT22;11592;45.460;9.240;2023-07-29T08:23:47;26.20;99.90
22852;DHT22;11592;45.460;9.240;2023-07-29T08:26:13;26.20;99.90
22852;DHT22;11592;45.460;9.240;2023-07-29T08:28:40;26.10;99.90
22852;DHT22;11592;45.460;9.240;2023-07-29T08:31:07;26.10;99.90
22852;DHT22;11592;45.460;9.240;2023-07-29T08:33:34;26.30;99.90
22852;DHT22;11592;45.460;9.240;2023-07-29T08:36:02;26.40;99.90
22852;DHT22;11592;45.460;9.240;2023-07-29T08:38:29;26.60;99.90
22852;DHT22;11592;45.460;9.240;2023-07-29T08:43:33;26.80;99.90
22852;DHT22;11592;45.460;9.240;2023-07-29T08:46:00;26.90;99.90
22852;DHT22;11592;45.460;9.240;2023-07-29T08:48:40;27.00;99.90
22852;DHT22;11592;45.460;9.240;2023-07-29T08:51:09;26.80;99.90
22852;DHT22;11592;45.460;9.240;2023-07-29T08:53:37;26.90;99.90
22852;DHT22;11592;45.460;9.240;2023-07-29T08:56:05;26.80;99.90
22852;DHT22;11592;45.460;9.240;2023-07-29T08:58:32;26.70;99.90
22852;DHT22;11592;45.460;9.240;2023-07-29T09:00:59;26.60;99.90
22852;DHT22;11592;45.460;9.240;2023-07-29T09:03:26;26.70;99.90
22852;DHT22;11592;45.460;9.240;2023-07-29T09:05:54;26.60;99.90
22852;DHT22;11592;45.460;9.240;2023-07-29T09:08:22;26.80;99.90
22852;DHT22;11592;45.460;9.240;2023-07-29T09:10:49;26.90;99.90
22852;DHT22;11592;45.460;9.240;2023-07-29T09:13:16;26.80;99.90
22852;DHT22;11592;45.460;9.240;2023-07-29T09:15:43;26.90;99.90
22852;DHT22;11592;45.460;9.240;2023-07-29T09:18:19;27.00;99.90
22852;DHT22;11592;45.460;9.240;2023-07-29T09:20:48;27.10;99.90
22852;DHT22;11592;45.460;9.240;2023-07-29T09:23:16;27.40;99.90
22852;DHT22;11592;45.460;9.240;2023-07-29T09:25:43;27.50;99.90
22852;DHT22;11592;45.460;9.240;2023-07-29T09:28:15;27.80;99.90
22852;DHT22;11592;45.460;9.240;2023-07-29T09:30:45;27.90;99.90
22852;DHT22;11592;45.460;9.240;2023-07-29T09:33:12;27.90;99.90
22852;DHT22;11592;45.460;9.240;2023-07-29T09:35:39;27.90;99.90
22852;DHT22;11592;45.460;9.240;2023-07-29T09:38:06;28.20;99.90
22852;DHT22;11592;45.460;9.240;2023-07-29T09:40:38;28.40;99.90
22852;DHT22;11592;45.460;9.240;2023-07-29T09:43:06;28.10;99.90
22852;DHT22;11592;45.460;9.240;2023-07-29T09:45:34;28.10;99.90
22852;DHT22;11592;45.460;9.240;2023-07-29T09:48:03;27.90;99.90
22852;DHT22;11592;45.460;9.240;2023-07-29T09:50:31;28.00;99.90
22852;DHT22;11592;45.460;9.240;2023-07-29T09:52:58;28.00;99.90
22852;DHT22;11592;45.460;9.240;2023-07-29T09:55:25;28.10;99.90
22852;DHT22;11592;45.460;9.240;2023-07-29T09:57:57;28.40;99.90
22852;DHT22;11592;45.460;9.240;2023-07-29T10:00:31;28.40;99.90
22852;DHT22;11592;45.460;9.240;2023-07-29T10:02:59;28.50;99.90
22852;DHT22;11592;45.460;9.240;2023-07-29T10:05:27;28.40;99.90
22852;DHT22;11592;45.460;9.240;2023-07-29T10:07:55;28.40;99.90
22852;DHT22;11592;45.460;9.240;2023-07-29T10:10:22;28.30;99.90
22852;DHT22;11592;45.460;9.240;2023-07-29T10:12:50;28.30;99.90
22852;DHT22;11592;45.460;9.240;2023-07-29T10:15:17;28.70;99.90
22852;DHT22;11592;45.460;9.240;2023-07-29T10:17:45;28.80;99.90
22852;DHT22;11592;45.460;9.240;2023-07-29T10:20:16;28.80;99.90
22852;DHT22;11592;45.460;9.240;2023-07-29T10:22:47;28.80;99.90
22852;DHT22;11592;45.460;9.240;2023-07-29T10:25:22;28.90;99.90
22852;DHT22;11592;45.460;9.240;2023-07-29T10:28:08;28.70;99.90
22852;DHT22;11592;45.460;9.240;2023-07-29T10:30:38;28.60;99.90
22852;DHT22;11592;45.460;9.240;2023-07-29T10:33:05;29.00;99.90
22852;DHT22;11592;45.460;9.240;2023-07-29T10:35:34;29.20;99.90
22852;DHT22;11592;45.460;9.240;2023-07-29T10:38:02;29.10;99.90
22852;DHT22;11592;45.460;9.240;2023-07-29T10:40:52;29.10;99.90
22852;DHT22;11592;45.460;9.240;2023-07-29T10:43:36;29.30;99.90
22852;DHT22;11592;45.460;9.240;2023-07-29T10:46:21;29.70;99.90
22852;DHT22;11592;45.460;9.240;2023-07-29T10:48:52;30.00;99.90
22852;DHT22;11592;45.460;9.240;2023-07-29T10:51:36;29.90;99.90
22852;DHT22;11592;45.460;9.240;2023-07-29T10:54:14;30.00;99.90
22852;DHT22;11592;45.460;9.240;2023-07-29T10:56:43;29.60;99.90
22852;DHT22;11592;45.460;9.240;2023-07-29T11:01:59;30.20;99.90
22852;DHT22;11592;45.460;9.240;2023-07-29T11:04:28;30.30;99.90
22852;DHT22;11592;45.460;9.240;2023-07-29T11:12:34;29.30;99.90
22852;DHT22;11592;45.460;9.240;2023-07-29T11:20:08;29.90;99.90
22852;DHT22;11592;45.460;9.240;2023-07-29T11:22:36;30.20;99.90
22852;DHT22;11592;45.460;9.240;2023-07-29T11:25:04;30.50;99.90
22852;DHT22;11592;45.460;9.240;2023-07-29T11:27:32;30.60;99.90
22852;DHT22;11592;45.460;9.240;2023-07-29T11:30:00;30.60;99.90
22852;DHT22;11592;45.460;9.240;2023-07-29T11:32:27;31.00;99.90
22852;DHT22;11592;45.460;9.240;2023-07-29T11:34:54;31.00;99.90
22852;DHT22;11592;45.460;9.240;2023-07-29T11:37:21;31.50;99.90
22852;DHT22;11592;45.460;9.240;2023-07-29T11:39:48;31.20;99.90
22852;DHT22;11592;45.460;9.240;2023-07-29T11:42:15;30.80;99.90
22852;DHT22;11592;45.460;9.240;2023-07-29T11:44:42;30.60;99.90
22852;DHT22;11592;45.460;9.240;2023-07-29T11:47:11;30.60;99.90
22852;DHT22;11592;45.460;9.240;2023-07-29T11:49:39;30.30;99.90
22852;DHT22;11592;45.460;9.240;2023-07-29T11:52:09;30.40;99.90
22852;DHT22;11592;45.460;9.240;2023-07-29T11:54:38;30.90;99.90
22852;DHT22;11592;45.460;9.240;2023-07-29T11:57:09;31.30;99.90
22852;DHT22;11592;45.460;9.240;2023-07-29T11:59:37;31.20;99.90
22852;DHT22;11592;45.460;9.240;2023-07-29T12:02:08;30.90;99.90
22852;DHT22;11592;45.460;9.240;2023-07-29T12:04:37;30.90;99.90
22852;DHT22;11592;45.460;9.240;2023-07-29T12:07:05;31.00;99.90
22852;DHT22;11592;45.460;9.240;2023-07-29T12:09:34;31.30;99.90
22852;DHT22;11592;45.460;9.240;2023-07-29T12:12:05;31.70;99.90
22852;DHT22;11592;45.460;9.240;2023-07-29T12:14:33;32.20;99.90
22852;DHT22;11592;45.460;9.240;2023-07-29T12:17:01;32.10;99.90
22852;DHT22;11592;45.460;9.240;2023-07-29T12:19:36;32.00;99.90
22852;DHT22;11592;45.460;9.240;2023-07-29T12:22:05;31.80;99.90
22852;DHT22;11592;45.460;9.240;2023-07-29T12:24:33;32.10;99.90
22852;DHT22;11592;45.460;9.240;2023-07-29T12:27:01;32.50;99.90
22852;DHT22;11592;45.460;9.240;2023-07-29T12:29:28;32.80;99.90
22852;DHT22;11592;45.460;9.240;2023-07-29T12:31:59;32.90;99.90
22852;DHT22;11592;45.460;9.240;2023-07-29T12:34:27;32.80;99.90
22852;DHT22;11592;45.460;9.240;2023-07-29T12:36:56;33.00;99.90
22852;DHT22;11592;45.460;9.240;2023-07-29T12:39:33;33.30;99.90
22852;DHT22;11592;45.460;9.240;2023-07-29T12:42:02;33.40;99.90
22852;DHT22;11592;45.460;9.240;2023-07-29T12:44:34;33.80;99.90
22852;DHT22;11592;45.460;9.240;2023-07-29T12:47:02;33.80;99.90
22852;DHT22;11592;45.460;9.240;2023-07-29T12:49:30;34.00;99.90
22852;DHT22;11592;45.460;9.240;2023-07-29T12:51:58;33.90;99.90
22852;DHT22;11592;45.460;9.240;2023-07-29T12:54:25;33.60;99.90
22852;DHT22;11592;45.460;9.240;2023-07-29T12:56:52;33.70;99.90
22852;DHT22;11592;45.460;9.240;2023-07-29T12:59:19;33.60;99.90
22852;DHT22;11592;45.460;9.240;2023-07-29T13:01:46;33.80;99.90
22852;DHT22;11592;45.460;9.240;2023-07-29T13:04:13;34.00;99.90
22852;DHT22;11592;45.460;9.240;2023-07-29T13:06:40;34.40;99.90
22852;DHT22;11592;45.460;9.240;2023-07-29T13:09:07;34.30;99.10
22852;DHT22;11592;45.460;9.240;2023-07-29T13:11:34;34.30;98.90
22852;DHT22;11592;45.460;9.240;2023-07-29T13:14:01;34.60;99.90
22852;DHT22;11592;45.460;9.240;2023-07-29T13:16:28;34.90;99.10
22852;DHT22;11592;45.460;9.240;2023-07-29T13:18:55;35.00;98.60
22852;DHT22;11592;45.460;9.240;2023-07-29T13:21:23;35.00;98.90
22852;DHT22;11592;45.460;9.240;2023-07-29T13:23:51;34.90;98.60
22852;DHT22;11592;45.460;9.240;2023-07-29T13:26:18;35.00;99.60
22852;DHT22;11592;45.460;9.240;2023-07-29T13:28:45;35.30;99.10
22852;DHT22;11592;45.460;9.240;2023-07-29T13:31:12;35.70;98.10
22852;DHT22;11592;45.460;9.240;2023-07-29T13:33:39;35.90;97.50
22852;DHT22;11592;45.460;9.240;2023-07-29T13:36:06;36.20;99.20
22852;DHT22;11592;45.460;9.240;2023-07-29T13:38:35;36.50;96.30
22852;DHT22;11592;45.460;9.240;2023-07-29T13:41:02;36.20;97.10
22852;DHT22;11592;45.460;9.240;2023-07-29T13:43:29;36.20;96.70
22852;DHT22;11592;45.460;9.240;2023-07-29T13:45:56;36.40;96.40
22852;DHT22;11592;45.460;9.240;2023-07-29T13:48:23;36.10;96.80
22852;DHT22;11592;45.460;9.240;2023-07-29T13:50:49;36.50;98.00
22852;DHT22;11592;45.460;9.240;2023-07-29T13:53:17;36.70;95.90
22852;DHT22;11592;45.460;9.240;2023-07-29T13:55:44;35.80;96.50
22852;DHT22;11592;45.460;9.240;2023-07-29T13:58:11;35.10;97.70
22852;DHT22;11592;45.460;9.240;2023-07-29T14:00:38;34.90;98.40
22852;DHT22;11592;45.460;9.240;2023-07-29T14:03:05;34.60;99.10
22852;DHT22;11592;45.460;9.240;2023-07-29T14:05:31;34.70;99.50
22852;DHT22;11592;45.460;9.240;2023-07-29T14:07:58;35.00;98.30
22852;DHT22;11592;45.460;9.240;2023-07-29T14:10:25;35.60;97.30
22852;DHT22;11592;45.460;9.240;2023-07-29T14:12:52;34.70;98.30
22852;DHT22;11592;45.460;9.240;2023-07-29T14:15:20;35.20;99.30
22852;DHT22;11592;45.460;9.240;2023-07-29T14:17:47;36.70;96.90
22852;DHT22;11592;45.460;9.240;2023-07-29T14:20:14;38.10;96.10
22852;DHT22;11592;45.460;9.240;2023-07-29T14:22:41;37.50;95.40
22852;DHT22;11592;45.460;9.240;2023-07-29T14:25:08;36.40;97.80
22852;DHT22;11592;45.460;9.240;2023-07-29T14:27:35;35.60;99.90
22852;DHT22;11592;45.460;9.240;2023-07-29T14:30:02;34.80;99.40
22852;DHT22;11592;45.460;9.240;2023-07-29T14:32:29;34.60;99.20
22852;DHT22;11592;45.460;9.240;2023-07-29T14:34:57;35.60;98.50
22852;DHT22;11592;45.460;9.240;2023-07-29T14:37:23;35.60;98.10
22852;DHT22;11592;45.460;9.240;2023-07-29T14:39:51;36.60;96.40
22852;DHT22;11592;45.460;9.240;2023-07-29T14:42:17;36.80;96.30
22852;DHT22;11592;45.460;9.240;2023-07-29T14:44:44;36.40;96.10
22852;DHT22;11592;45.460;9.240;2023-07-29T14:47:11;35.00;97.70
22852;DHT22;11592;45.460;9.240;2023-07-29T14:49:38;35.10;97.60
22852;DHT22;11592;45.460;9.240;2023-07-29T14:52:06;36.30;98.80
22852;DHT22;11592;45.460;9.240;2023-07-29T14:54:33;37.50;96.50
22852;DHT22;11592;45.460;9.240;2023-07-29T14:57:00;37.60;95.20
22852;DHT22;11592;45.460;9.240;2023-07-29T14:59:27;37.20;95.70
22852;DHT22;11592;45.460;9.240;2023-07-29T15:01:53;35.80;96.40
22852;DHT22;11592;45.460;9.240;2023-07-29T15:04:20;35.20;97.60
22852;DHT22;11592;45.460;9.240;2023-07-29T15:06:47;34.80;98.20
22852;DHT22;11592;45.460;9.240;2023-07-29T15:09:14;35.00;98.00
22852;DHT22;11592;45.460;9.240;2023-07-29T15:11:41;36.00;98.20
22852;DHT22;11592;45.460;9.240;2023-07-29T15:14:07;36.40;95.90
22852;DHT22;11592;45.460;9.240;2023-07-29T15:16:34;36.50;95.70
22852;DHT22;11592;45.460;9.240;2023-07-29T15:19:03;36.40;94.00
22852;DHT22;11592;45.460;9.240;2023-07-29T15:21:32;36.40;94.70
22852;DHT22;11592;45.460;9.240;2023-07-29T15:24:02;36.70;93.70
22852;DHT22;11592;45.460;9.240;2023-07-29T15:26:29;36.30;93.70
22852;DHT22;11592;45.460;9.240;2023-07-29T15:28:59;36.20;94.60
22852;DHT22;11592;45.460;9.240;2023-07-29T15:31:26;36.50;93.90
22852;DHT22;11592;45.460;9.240;2023-07-29T15:33:53;36.30;93.80
22852;DHT22;11592;45.460;9.240;2023-07-29T15:36:20;36.00;94.00
22852;DHT22;11592;45.460;9.240;2023-07-29T15:38:47;35.30;95.20
22852;DHT22;11592;45.460;9.240;2023-07-29T15:41:13;34.80;95.90
22852;DHT22;11592;45.460;9.240;2023-07-29T15:43:40;34.50;96.00
22852;DHT22;11592;45.460;9.240;2023-07-29T15:46:07;34.50;96.60
22852;DHT22;11592;45.460;9.240;2023-07-29T15:48:34;34.30;96.90
22852;DHT22;11592;45.460;9.240;2023-07-29T15:51:00;34.00;96.70